Time;durP1;ratioP1;P1;durP2;ratioP2;P2;SDS_P1;SDS_P2;PMS_P1;PMS_P2;Temp;Humidity;BMP_temperature;BMP_pressure;BME280_temperature;BME280_humidity;BME280_pressure;Samples;Min_cycle;Max_cycle;Signal;HPM_P1;HPM_P2
2021/03/26 00:02:17;;;;;;;65.35;42.30;;;;;;;3.35;78.76;100870.13;1832290;78;20926;-72
2021/03/26 00:04:46;;;;;;;111.37;66.20;;;;;;;3.38;78.79;100871.78;1832336;78;21373;-70
2021/03/26 00:07:16;;;;;;;102.30;58.28;;;;;;;3.37;78.78;100872.23;1832332;77;20922;-72
2021/03/26 00:09:47;;;;;;;100.30;56.63;;;;;;;3.39;78.69;100877.39;1832364;78;20953;-71
2021/03/26 00:12:15;;;;;;;93.78;52.83;;;;;;;3.41;78.59;100879.50;1832344;78;21355;-72
2021/03/26 00:14:45;;;;;;;81.82;44.33;;;;;;;3.42;78.49;100872.11;1832275;78;21344;-71
2021/03/26 00:17:13;;;;;;;141.20;72.20;;;;;;;3.39;78.37;100867.87;1831507;78;20926;-71
2021/03/26 00:19:43;;;;;;;110.50;66.00;;;;;;;3.37;78.31;100871.39;1817320;79;20967;-72
2021/03/26 00:22:11;;;;;;;65.40;45.65;;;;;;;3.32;78.36;100864.58;1817373;79;21014;-71
2021/03/26 00:24:39;;;;;;;58.15;39.90;;;;;;;3.31;78.46;100871.09;1817252;77;21775;-72
2021/03/26 00:27:07;;;;;;;69.50;44.80;;;;;;;3.31;78.52;100871.97;1817226;79;20975;-72
2021/03/26 00:29:36;;;;;;;104.20;62.65;;;;;;;3.29;78.55;100871.58;1817312;77;21373;-72
2021/03/26 00:32:07;;;;;;;76.57;46.63;;;;;;;3.27;78.49;100872.09;1817307;79;21360;-70
2021/03/26 00:34:35;;;;;;;84.07;50.80;;;;;;;3.25;78.46;100870.83;1817350;79;20954;-76
2021/03/26 00:37:05;;;;;;;69.17;47.67;;;;;;;3.23;78.38;100874.35;1817339;78;21352;-72
2021/03/26 00:39:33;;;;;;;51.75;35.88;;;;;;;3.20;78.36;100872.69;1817191;78;20923;-72
2021/03/26 00:42:01;;;;;;;50.85;34.38;;;;;;;3.19;78.39;100881.79;1817259;79;20943;-72
2021/03/26 00:44:31;;;;;;;42.55;26.42;;;;;;;3.18;78.52;100874.89;1817293;77;20983;-73
2021/03/26 00:46:59;;;;;;;42.13;28.50;;;;;;;3.18;78.62;100875.77;1817267;79;20990;-74
2021/03/26 00:49:28;;;;;;;40.48;26.52;;;;;;;3.20;78.72;100880.89;1817316;78;22389;-71
2021/03/26 00:51:58;;;;;;;40.67;27.75;;;;;;;3.24;78.73;100882.52;1817248;78;21026;-71
2021/03/26 00:54:27;;;;;;;47.38;27.27;;;;;;;3.27;78.62;100890.23;1817335;77;21331;-70
2021/03/26 00:56:55;;;;;;;38.67;27.13;;;;;;;3.29;78.41;100889.72;1817240;78;20919;-71
2021/03/26 00:59:28;;;;;;;36.85;25.95;;;;;;;3.27;78.14;100892.83;1814427;77;21029;-71
2021/03/26 01:01:56;;;;;;;32.45;23.65;;;;;;;3.26;78.24;100893.70;1817280;79;21810;-70
2021/03/26 01:04:24;;;;;;;40.00;24.40;;;;;;;3.27;78.37;100889.78;1785647;79;20950;-73
2021/03/26 01:06:52;;;;;;;35.63;24.95;;;;;;;3.28;78.50;100889.33;1817176;77;20992;-71
2021/03/26 01:09:22;;;;;;;56.73;33.67;;;;;;;3.32;78.57;100885.32;1817306;79;20963;-71
2021/03/26 01:11:50;;;;;;;81.82;50.12;;;;;;;3.36;78.47;100887.82;1817309;78;21401;-72
2021/03/26 01:14:20;;;;;;;62.10;39.20;;;;;;;3.34;78.34;100891.77;1816481;77;21759;-70
2021/03/26 01:16:50;;;;;;;58.98;35.48;;;;;;;3.32;78.25;100894.39;1817073;79;20942;-70
2021/03/26 01:19:19;;;;;;;49.10;31.45;;;;;;;3.29;78.23;100893.61;1829229;77;21400;-72
2021/03/26 01:21:47;;;;;;;47.60;28.87;;;;;;;3.25;78.33;100891.56;1832329;77;21124;-71
2021/03/26 01:24:17;;;;;;;43.52;27.52;;;;;;;3.24;78.45;100887.25;1832347;78;20918;-70
2021/03/26 01:26:47;;;;;;;45.58;28.42;;;;;;;3.26;78.48;100894.99;1832197;78;21432;-72
2021/03/26 01:29:17;;;;;;;41.15;27.13;;;;;;;3.29;78.48;100897.08;1831386;78;21096;-72
2021/03/26 01:31:53;;;;;;;44.60;26.55;;;;;;;3.30;78.43;100890.14;1832036;78;20930;-73
2021/03/26 01:34:23;;;;;;;44.67;28.32;;;;;;;3.35;78.30;100884.84;1832368;78;21530;-71
2021/03/26 01:36:53;;;;;;;35.85;24.60;;;;;;;3.36;78.20;100876.16;1831892;78;20886;-72
2021/03/26 01:39:21;;;;;;;38.02;24.72;;;;;;;3.35;78.00;100880.95;1832303;78;21358;-72
2021/03/26 01:41:50;;;;;;;38.40;25.52;;;;;;;3.30;78.00;100890.14;1831560;78;21001;-71
2021/03/26 01:44:25;;;;;;;36.23;25.80;;;;;;;3.24;78.08;100891.59;1832283;78;20939;-73
2021/03/26 01:46:55;;;;;;;40.48;26.82;;;;;;;3.22;78.11;100892.06;1832473;78;20930;-72
2021/03/26 01:49:24;;;;;;;46.42;29.67;;;;;;;3.20;78.16;100896.44;1832333;78;20966;-73
2021/03/26 01:51:55;;;;;;;48.30;30.37;;;;;;;3.18;78.33;100893.03;1832076;78;21369;-73
2021/03/26 01:54:27;;;;;;;49.45;32.70;;;;;;;3.20;78.34;100898.61;1832235;77;20910;-71
2021/03/26 01:56:58;;;;;;;41.98;27.35;;;;;;;3.22;78.25;100899.39;1832243;78;21045;-72
2021/03/26 01:59:32;;;;;;;41.50;29.32;;;;;;;3.21;78.02;100908.52;1832202;77;20946;-72
2021/03/26 02:02:10;;;;;;;47.45;31.10;;;;;;;3.17;77.85;100916.80;1832552;78;20974;-72
2021/03/26 02:04:45;;;;;;;46.02;31.62;;;;;;;3.15;78.01;100920.33;1831506;78;21274;-70
2021/03/26 02:07:25;;;;;;;50.15;33.83;;;;;;;3.12;78.12;100923.84;1829734;78;20962;-70
2021/03/26 02:09:53;;;;;;;54.10;35.33;;;;;;;3.11;78.19;100917.82;1832377;78;20938;-73
2021/03/26 02:12:26;;;;;;;52.80;32.13;;;;;;;3.14;78.30;100924.66;1804850;78;20977;-72
2021/03/26 02:15:03;;;;;;;61.95;37.55;;;;;;;3.17;78.16;100925.03;1832307;78;20914;-72
2021/03/26 02:17:33;;;;;;;45.50;33.38;;;;;;;3.17;78.16;100923.28;1832284;77;21382;-71
2021/03/26 02:20:15;;;;;;;41.10;27.40;;;;;;;3.17;77.94;100926.33;1829138;78;20950;-72
2021/03/26 02:22:43;;;;;;;50.78;32.17;;;;;;;3.15;77.83;100925.51;1829362;78;20915;-72
2021/03/26 02:25:14;;;;;;;44.85;29.42;;;;;;;3.11;77.87;100932.48;1829641;77;21590;-72
2021/03/26 02:27:42;;;;;;;45.17;29.95;;;;;;;3.08;77.85;100929.53;1802768;78;20974;-73
2021/03/26 02:30:19;;;;;;;38.50;27.52;;;;;;;3.07;77.94;100925.70;1829691;78;22307;-71
2021/03/26 02:32:47;;;;;;;31.15;22.85;;;;;;;3.07;77.96;100929.59;1829587;78;20958;-72
2021/03/26 02:35:32;;;;;;;49.33;33.55;;;;;;;3.07;77.89;100928.30;1829575;77;20950;-71
2021/03/26 02:38:27;;;;;;;48.90;33.40;;;;;;;3.08;78.05;100931.28;1825932;77;20997;-71
2021/03/26 02:41:39;;;;;;;42.67;28.47;;;;;;;3.06;77.78;100927.42;1829751;78;21676;-72
2021/03/26 02:44:32;;;;;;;48.08;31.42;;;;;;;3.02;77.75;100922.35;1829226;78;21490;-71
2021/03/26 02:47:42;;;;;;;45.08;30.23;;;;;;;2.94;77.71;100927.73;1829739;77;20986;-73
2021/03/26 02:50:56;;;;;;;45.05;31.10;;;;;;;2.87;77.69;100932.20;1828830;78;20946;-72
2021/03/26 02:53:41;;;;;;;41.30;28.77;;;;;;;2.81;77.85;100936.67;1827137;78;20886;-72
2021/03/26 02:56:32;;;;;;;42.95;29.45;;;;;;;2.78;78.05;100923.77;1845893;76;22354;-71
2021/03/26 02:59:09;;;;;;;43.00;29.35;;;;;;;2.69;78.06;100928.30;1818034;77;20891;-72
2021/03/26 03:01:49;;;;;;;37.88;28.50;;;;;;;2.63;78.03;100934.90;1818017;79;22428;-72
2021/03/26 03:04:29;;;;;;;37.50;25.65;;;;;;;2.58;78.24;100937.16;1817966;79;20947;-73
2021/03/26 03:07:11;;;;;;;42.58;29.98;;;;;;;2.56;78.36;100934.63;1817811;79;20915;-72
2021/03/26 03:09:55;;;;;;;41.75;29.02;;;;;;;2.56;78.36;100944.98;1814654;77;20950;-72
2021/03/26 03:12:31;;;;;;;47.38;30.97;;;;;;;2.54;78.18;100947.20;1817408;79;21132;-73
2021/03/26 03:15:21;;;;;;;44.00;31.27;;;;;;;2.51;78.00;100946.80;1817946;79;21401;-72
2021/03/26 03:18:25;;;;;;;45.33;29.80;;;;;;;2.49;77.95;100949.44;1817942;77;20974;-71
2021/03/26 03:21:29;;;;;;;53.33;35.33;;;;;;;2.45;78.11;100957.31;1786595;79;20985;-73
2021/03/26 03:24:18;;;;;;;71.05;41.65;;;;;;;2.41;78.23;100950.48;1817910;77;20910;-73
2021/03/26 03:27:12;;;;;;;64.62;39.08;;;;;;;2.35;78.11;100956.63;1817821;78;20907;-71
2021/03/26 03:29:52;;;;;;;54.75;34.27;;;;;;;2.30;77.91;100961.50;1818040;79;21423;-72
2021/03/26 03:32:38;;;;;;;58.38;32.50;;;;;;;2.23;78.03;100956.44;1815457;77;20950;-72
2021/03/26 03:37:11;;;;;;;55.30;33.98;;;;;;;2.25;78.52;100968.06;1777189;79;22678;-71
2021/03/26 03:40:12;;;;;;;51.40;30.85;;;;;;;2.19;78.70;100965.59;1749640;80;20962;-72
2021/03/26 03:42:58;;;;;;;49.85;31.27;;;;;;;2.23;78.83;100968.53;1749750;81;22534;-72
2021/03/26 03:45:44;;;;;;;48.83;29.65;;;;;;;2.25;78.79;100959.86;1749316;82;21536;-71
2021/03/26 03:48:35;;;;;;;48.75;32.00;;;;;;;2.28;78.69;100967.99;1719807;82;21495;-72
2021/03/26 03:51:27;;;;;;;48.50;31.73;;;;;;;2.29;78.58;100961.95;1719581;83;20963;-72
2021/03/26 03:54:02;;;;;;;55.10;34.35;;;;;;;2.26;78.46;100968.02;1718946;83;20979;-71
2021/03/26 03:56:50;;;;;;;55.28;34.63;;;;;;;2.25;78.53;100970.20;1719761;82;21423;-73
2021/03/26 03:59:42;;;;;;;47.93;30.77;;;;;;;2.27;78.42;100969.73;1713505;83;20987;-70
2021/03/26 04:02:35;;;;;;;55.00;33.05;;;;;;;2.32;78.39;100976.56;1719654;83;20986;-72
2021/03/26 04:05:26;;;;;;;44.18;29.60;;;;;;;2.33;78.33;100977.80;1719538;83;21065;-72
2021/03/26 04:08:15;;;;;;;31.93;21.82;;;;;;;2.33;78.28;100985.56;1719823;82;21480;-71
2021/03/26 04:10:46;;;;;;;28.00;19.92;;;;;;;2.31;78.28;100980.86;1719455;83;21400;-72
2021/03/26 04:13:28;;;;;;;27.40;18.95;;;;;;;2.28;78.29;100981.77;1720016;83;21380;-73
2021/03/26 04:16:00;;;;;;;32.33;20.52;;;;;;;2.27;78.51;100978.80;1719710;83;20947;-73
2021/03/26 04:18:53;;;;;;;48.35;30.27;;;;;;;2.28;78.63;100975.76;1719645;83;21058;-72
2021/03/26 04:21:36;;;;;;;45.43;29.20;;;;;;;2.30;78.65;100981.75;1719825;82;21011;-71
2021/03/26 04:24:46;;;;;;;57.15;35.95;;;;;;;2.34;78.37;100985.14;1719343;83;21058;-71
2021/03/26 04:27:38;;;;;;;58.98;34.90;;;;;;;2.34;78.36;100991.62;1719702;83;21062;-72
2021/03/26 04:30:23;;;;;;;53.35;31.90;;;;;;;2.36;78.49;100993.28;1709100;82;21493;-72
2021/03/26 04:32:53;;;;;;;52.25;32.80;;;;;;;2.40;78.37;100997.94;1719312;83;21388;-72
2021/03/26 04:35:22;;;;;;;47.48;33.70;;;;;;;2.43;78.25;101001.78;1719729;83;21097;-73
2021/03/26 04:38:13;;;;;;;46.60;30.05;;;;;;;2.44;78.26;100997.84;1694974;82;22310;-72
2021/03/26 04:40:49;;;;;;;46.85;26.73;;;;;;;2.49;78.31;100999.08;1720469;82;20979;-72
2021/03/26 04:43:48;;;;;;;62.53;31.90;;;;;;;2.54;78.31;100998.53;1694086;83;21389;-72
2021/03/26 04:46:25;;;;;;;74.62;37.03;;;;;;;2.61;78.18;100998.80;1720403;82;21050;-72
2021/03/26 04:49:28;;;;;;;99.40;51.25;;;;;;;2.66;77.99;101008.61;1699025;83;20984;-72
2021/03/26 04:52:18;;;;;;;109.92;55.98;;;;;;;2.67;78.03;101011.62;1719930;83;21391;-73
2021/03/26 04:55:12;;;;;;;113.37;57.60;;;;;;;2.69;77.96;101021.52;1719879;83;21000;-73
2021/03/26 04:57:58;;;;;;;93.27;47.40;;;;;;;2.72;78.03;101023.18;1719320;82;21465;-73
2021/03/26 05:00:50;;;;;;;69.47;35.25;;;;;;;2.76;78.21;101016.18;1719882;83;20963;-71
2021/03/26 05:03:24;;;;;;;58.52;30.20;;;;;;;2.89;78.50;101027.56;1720100;83;21030;-71
2021/03/26 05:06:00;;;;;;;;;;;;;;;3.08;78.43;101029.28;1722585;83;21212;-71
2021/03/26 05:08:32;;;;;;;30.88;18.17;;;;;;;3.31;78.11;101034.39;1719520;83;20160;-72
2021/03/26 05:11:20;;;;;;;29.65;17.55;;;;;;;3.57;77.59;101038.95;1719974;83;21010;-72
2021/03/26 05:13:57;;;;;;;25.00;15.83;;;;;;;3.79;76.88;101041.03;1719957;83;21065;-72
2021/03/26 05:16:55;;;;;;;20.80;13.80;;;;;;;3.97;76.41;101039.26;1719499;82;21603;-73
2021/03/26 05:20:29;;;;;;;17.80;12.63;;;;;;;4.20;75.87;101045.58;1720080;82;21015;-73
2021/03/26 05:23:31;;;;;;;15.63;12.25;;;;;;;4.70;74.61;101038.15;1889949;76;22594;-75
2021/03/26 05:26:18;;;;;;;16.95;12.58;;;;;;;4.93;73.79;101046.09;1860898;77;21064;-73
2021/03/26 05:29:08;;;;;;;15.40;12.00;;;;;;;5.29;72.65;101045.91;1755787;80;22271;-72
2021/03/26 05:32:00;;;;;;;17.98;12.65;;;;;;;5.56;71.35;101043.33;1755953;80;21068;-73
2021/03/26 05:34:59;;;;;;;19.80;15.20;;;;;;;5.92;70.17;101041.70;1873761;75;27715;-73
2021/03/26 05:37:37;;;;;;;16.67;12.00;;;;;;;6.19;69.49;101044.68;1827869;77;20910;-73
2021/03/26 05:40:52;;;;;;;15.63;12.07;;;;;;;6.53;68.35;101045.23;1847505;77;21690;-73
2021/03/26 05:44:11;;;;;;;18.25;12.75;;;;;;;6.82;67.42;101051.52;1855758;77;21380;-72
2021/03/26 05:46:58;;;;;;;19.05;13.88;;;;;;;7.14;65.79;101055.14;1860411;77;21040;-72
2021/03/26 05:50:03;;;;;;;17.73;13.05;;;;;;;7.47;64.63;101052.96;1860173;77;20933;-72
2021/03/26 05:52:38;;;;;;;18.07;13.15;;;;;;;7.79;63.47;101058.16;1860878;77;21001;-71
2021/03/26 05:55:34;;;;;;;16.80;13.70;;;;;;;7.97;61.89;101055.70;1861100;77;21357;-73
2021/03/26 05:58:52;;;;;;;19.20;13.45;;;;;;;8.08;60.93;101067.84;1855686;77;21012;-72
2021/03/26 06:01:45;;;;;;;16.97;13.00;;;;;;;8.19;60.37;101059.09;1860955;77;20954;-71
2021/03/26 06:05:10;;;;;;;23.42;14.78;;;;;;;8.30;59.96;101056.02;1860864;77;20887;-72
2021/03/26 06:08:32;;;;;;;18.05;14.20;;;;;;;8.37;59.25;101061.36;1831721;77;20922;-72
2021/03/26 06:12:00;;;;;;;19.05;14.95;;;;;;;8.37;58.99;101065.75;1821107;77;21333;-72
2021/03/26 06:15:35;;;;;;;20.72;15.58;;;;;;;8.46;58.63;101066.68;1837383;77;20938;-73
2021/03/26 06:19:17;;;;;;;21.52;14.70;;;;;;;8.45;58.14;101064.53;1860879;77;21017;-74
2021/03/26 06:22:19;;;;;;;19.32;14.55;;;;;;;8.36;58.59;101064.91;1835485;77;20922;-72
2021/03/26 06:25:44;;;;;;;20.90;14.70;;;;;;;8.33;58.27;101070.25;1846503;76;22706;-72
2021/03/26 06:28:34;;;;;;;19.42;14.98;;;;;;;8.38;58.79;101068.30;1793428;77;20915;-75
2021/03/26 06:31:41;;;;;;;18.92;15.50;;;;;;;8.63;58.60;101070.70;1816561;77;21380;-72
2021/03/26 06:35:09;;;;;;;17.52;14.28;;;;;;;8.78;58.04;101070.48;1817907;77;20946;-74
2021/03/26 06:38:01;;;;;;;18.00;14.50;;;;;;;9.02;57.28;101076.34;1818022;77;21352;-73
2021/03/26 06:40:55;;;;;;;17.25;14.10;;;;;;;9.18;56.95;101077.81;1817962;77;21041;-73
2021/03/26 06:44:05;;;;;;;21.15;14.75;;;;;;;9.36;56.54;101080.45;1818106;78;20919;-74
2021/03/26 06:46:52;;;;;;;21.10;15.20;;;;;;;9.43;55.54;101076.17;1817975;77;20947;-73
2021/03/26 06:49:46;;;;;;;20.72;14.83;;;;;;;9.42;54.31;101077.08;1818259;79;21428;-74
2021/03/26 06:52:45;;;;;;;22.48;14.78;;;;;;;9.33;54.51;101071.83;1818103;79;20974;-72
2021/03/26 06:55:37;;;;;;;17.77;13.90;;;;;;;9.38;54.66;101077.30;1817980;79;20942;-73
2021/03/26 06:58:43;;;;;;;15.75;12.75;;;;;;;9.62;54.04;101077.43;1817946;78;20923;-72
2021/03/26 07:01:17;;;;;;;;;;;;;;;9.82;53.74;101080.38;1820627;78;21634;-74
2021/03/26 07:04:09;;;;;;;16.00;14.03;;;;;;;10.14;52.83;101084.50;1817842;77;20482;-72
2021/03/26 07:07:06;;;;;;;20.72;13.80;;;;;;;10.32;52.38;101086.67;1817893;78;20965;-71
2021/03/26 07:09:56;;;;;;;17.00;13.68;;;;;;;10.45;51.49;101093.42;1817887;79;20993;-72
2021/03/26 07:12:45;;;;;;;15.13;12.43;;;;;;;10.58;51.47;101095.34;1818034;79;21337;-71
2021/03/26 07:15:20;;;;;;;17.95;13.72;;;;;;;10.85;51.16;101090.87;1817919;79;21652;-72
2021/03/26 07:18:06;;;;;;;17.90;14.38;;;;;;;11.01;49.13;101094.83;1818084;79;20931;-72
2021/03/26 07:21:25;;;;;;;17.12;13.08;;;;;;;11.05;49.96;101102.92;1817932;77;20891;-72
2021/03/26 07:24:41;;;;;;;16.02;12.68;;;;;;;11.37;49.96;101097.67;1817815;78;20974;-72
2021/03/26 07:27:59;;;;;;;13.70;11.88;;;;;;;11.80;47.89;101101.80;1845916;76;22368;-72
2021/03/26 07:30:44;;;;;;;14.28;11.95;;;;;;;11.88;47.94;101104.04;1818056;77;21333;-73
2021/03/26 07:33:29;;;;;;;13.60;12.13;;;;;;;12.18;48.38;101093.05;1817996;79;21392;-72
2021/03/26 07:36:21;;;;;;;17.30;12.73;;;;;;;12.57;48.09;101090.75;1818203;79;22938;-74
2021/03/26 07:39:16;;;;;;;33.00;14.30;;;;;;;12.79;46.82;101091.59;1818102;77;21033;-73
2021/03/26 07:42:08;;;;;;;16.77;13.25;;;;;;;12.93;46.15;101096.84;1817727;79;20927;-72
2021/03/26 07:45:09;;;;;;;14.40;12.03;;;;;;;13.66;46.10;101093.12;1818033;79;21041;-72
2021/03/26 07:48:05;;;;;;;12.45;10.72;;;;;;;13.66;46.10;101093.12;1817959;79;21253;-72
2021/03/26 07:50:54;;;;;;;12.35;10.88;;;;;;;14.27;45.29;101100.92;1817803;77;20934;-73
2021/03/26 07:53:36;;;;;;;16.93;12.63;;;;;;;14.82;43.66;101096.76;1817970;79;21009;-71
2021/03/26 07:56:32;;;;;;;12.25;10.95;;;;;;;15.24;42.65;101094.17;1804431;79;20938;-72
2021/03/26 07:59:41;;;;;;;12.98;10.90;;;;;;;15.66;41.37;101095.13;1795562;77;20950;-72
2021/03/26 08:02:53;;;;;;;12.23;10.80;;;;;;;15.98;40.44;101091.91;1817947;79;21361;-73
2021/03/26 08:05:51;;;;;;;11.97;10.88;;;;;;;16.09;39.53;101093.27;1817933;78;21555;-72
2021/03/26 08:08:47;;;;;;;11.85;10.15;;;;;;;16.08;39.17;101090.27;1817480;79;21459;-72
2021/03/26 08:11:40;;;;;;;12.90;10.35;;;;;;;16.18;39.94;101085.95;1818040;79;21464;-71
2021/03/26 08:14:34;;;;;;;10.88;9.73;;;;;;;16.52;39.73;101084.70;1808371;79;21132;-72
2021/03/26 08:17:34;;;;;;;12.43;11.08;;;;;;;16.80;38.97;101084.72;1817891;77;21380;-71
2021/03/26 08:20:31;;;;;;;10.20;9.20;;;;;;;16.97;38.35;101086.88;1817858;79;21029;-72
2021/03/26 08:23:21;;;;;;;12.20;8.98;;;;;;;17.06;37.55;101080.50;1817905;77;21018;-72
2021/03/26 08:26:29;;;;;;;9.90;8.88;;;;;;;17.19;37.44;101092.64;1817786;78;20982;-72
2021/03/26 08:29:17;;;;;;;10.53;8.78;;;;;;;17.34;37.88;101085.27;1818021;79;21018;-72
2021/03/26 08:32:30;;;;;;;9.93;8.48;;;;;;;17.57;37.00;101087.84;1817895;77;21799;-73
2021/03/26 08:35:16;;;;;;;9.10;8.23;;;;;;;17.60;37.32;101090.23;1818048;77;21602;-73
2021/03/26 08:38:21;;;;;;;11.57;7.85;;;;;;;17.64;36.91;101085.53;1817109;79;21049;-73
2021/03/26 08:40:59;;;;;;;9.20;8.28;;;;;;;17.51;36.24;101089.66;1817357;79;21014;-71
2021/03/26 08:43:30;;;;;;;12.35;8.03;;;;;;;17.44;35.87;101085.34;1786506;77;20931;-71
2021/03/26 08:46:07;;;;;;;9.45;8.20;;;;;;;17.32;36.49;101083.22;1817341;79;21361;-69
2021/03/26 08:49:07;;;;;;;8.20;7.33;;;;;;;17.16;36.90;101086.27;1817149;78;20966;-72
2021/03/26 08:52:08;;;;;;;9.38;6.75;;;;;;;17.16;36.27;101085.41;1817331;77;20925;-70
2021/03/26 08:54:56;;;;;;;11.68;7.78;;;;;;;17.19;35.76;101089.16;1727542;81;21492;-70
2021/03/26 08:58:08;;;;;;;9.35;7.62;;;;;;;17.25;34.52;101086.47;1727509;83;21038;-71
2021/03/26 09:01:08;;;;;;;9.50;6.92;;;;;;;17.15;36.25;101081.08;1727414;81;21748;-72
2021/03/26 09:04:08;;;;;;;9.68;7.12;;;;;;;17.40;34.55;101088.72;1727528;81;21346;-71
2021/03/26 09:07:06;;;;;;;8.28;6.60;;;;;;;17.68;35.10;101091.78;1727421;82;20996;-69
2021/03/26 09:10:04;;;;;;;9.50;7.35;;;;;;;17.86;33.17;101084.13;1847816;76;22729;-71
2021/03/26 09:12:56;;;;;;;12.05;7.37;;;;;;;17.75;34.29;101094.77;1818011;78;21443;-71
2021/03/26 09:16:12;;;;;;;7.37;5.75;;;;;;;17.85;33.74;101089.06;1852250;77;23291;-73
2021/03/26 09:18:51;;;;;;;8.88;7.10;;;;;;;17.79;33.80;101096.20;1738505;82;21041;-70
2021/03/26 09:21:45;;;;;;;7.55;6.67;;;;;;;17.94;34.93;101092.77;1738685;82;22128;-73
2021/03/26 09:24:57;;;;;;;6.47;5.87;;;;;;;18.37;34.29;101082.52;1890024;76;22668;-71
2021/03/26 09:28:05;;;;;;;9.90;6.33;;;;;;;18.56;33.04;101089.23;1860968;77;20982;-72
2021/03/26 09:30:39;;;;;;;7.15;6.15;;;;;;;18.66;31.59;101090.63;1777209;80;21436;-72
2021/03/26 09:33:21;;;;;;;7.17;6.58;;;;;;;18.63;32.11;101085.56;1890092;76;22612;-70
2021/03/26 09:36:00;;;;;;;6.70;5.97;;;;;;;18.76;32.07;101085.34;1861016;77;20934;-72
2021/03/26 09:38:40;;;;;;;9.55;6.17;;;;;;;18.84;32.77;101081.08;1823193;78;21329;-71
2021/03/26 09:41:21;;;;;;;6.33;5.33;;;;;;;18.94;31.60;101089.10;1823118;78;21005;-72
2021/03/26 09:44:00;;;;;;;7.08;5.85;;;;;;;19.10;32.32;101092.58;1821872;78;21457;-73
2021/03/26 09:47:04;;;;;;;6.70;6.10;;;;;;;19.34;31.77;101095.34;1823200;78;21444;-70
2021/03/26 09:50:01;;;;;;;9.60;6.40;;;;;;;19.40;30.68;101094.30;1823470;78;20920;-71
2021/03/26 09:52:39;;;;;;;8.15;5.65;;;;;;;19.35;31.19;101085.06;1823102;78;21193;-72
2021/03/26 09:55:11;;;;;;;7.00;6.30;;;;;;;19.61;30.27;101094.69;1823062;78;21035;-74
2021/03/26 09:58:32;;;;;;;8.08;6.25;;;;;;;19.85;30.51;101099.14;1823201;78;20971;-72
2021/03/26 10:01:20;;;;;;;6.30;5.80;;;;;;;19.86;29.86;101093.31;1822668;78;20992;-71
2021/03/26 10:04:02;;;;;;;7.33;6.45;;;;;;;19.42;29.39;101096.33;1823080;78;20947;-71
2021/03/26 10:06:45;;;;;;;7.33;6.70;;;;;;;18.84;30.84;101091.70;1820582;78;21887;-71
2021/03/26 10:09:45;;;;;;;7.92;7.12;;;;;;;18.93;30.83;101091.88;1792442;78;20952;-73
2021/03/26 10:12:26;;;;;;;8.75;7.40;;;;;;;19.16;31.19;101097.33;1822916;78;21028;-72
2021/03/26 10:15:02;;;;;;;7.78;7.08;;;;;;;19.30;30.88;101096.58;1823185;78;20936;-73
2021/03/26 10:17:59;;;;;;;10.20;7.70;;;;;;;19.36;30.81;101092.88;1823283;78;21335;-72
2021/03/26 10:20:51;;;;;;;7.62;6.92;;;;;;;19.39;30.87;101095.28;1823076;78;21356;-71
2021/03/26 10:23:51;;;;;;;8.05;7.25;;;;;;;19.12;30.12;101089.30;1823055;78;21007;-74
2021/03/26 10:26:41;;;;;;;5.90;5.40;;;;;;;18.89;31.35;101087.81;1823095;78;20992;-72
2021/03/26 10:29:42;;;;;;;5.62;5.10;;;;;;;18.88;31.26;101098.94;1810716;78;21019;-73
2021/03/26 10:32:24;;;;;;;7.33;6.70;;;;;;;18.73;30.51;101089.61;1826660;78;20943;-72
2021/03/26 10:34:55;;;;;;;5.83;5.03;;;;;;;18.65;31.12;101094.24;1832466;78;21370;-72
2021/03/26 10:37:44;;;;;;;5.85;5.28;;;;;;;18.82;31.41;101088.34;1832359;78;21031;-72
2021/03/26 10:40:46;;;;;;;6.78;6.10;;;;;;;18.88;31.28;101092.78;1831099;77;21005;-70
2021/03/26 10:43:42;;;;;;;7.45;6.75;;;;;;;18.73;32.09;101093.10;1832186;78;21342;-72
2021/03/26 10:46:22;;;;;;;8.10;7.40;;;;;;;18.16;32.68;101086.03;1831885;78;21362;-71
2021/03/26 10:49:14;;;;;;;8.33;7.05;;;;;;;17.69;33.20;101093.45;1832059;78;21160;-71
2021/03/26 10:51:55;;;;;;;6.53;5.92;;;;;;;17.54;33.67;101085.42;1831750;78;20955;-70
2021/03/26 10:54:45;;;;;;;6.00;5.50;;;;;;;17.45;33.57;101092.81;1831813;78;20945;-73
2021/03/26 10:57:22;;;;;;;6.87;5.33;;;;;;;17.58;33.88;101090.34;1831793;78;20931;-76
2021/03/26 10:59:59;;;;;;;5.80;5.20;;;;;;;17.95;32.81;101084.69;1831883;78;20979;-74
2021/03/26 11:03:16;;;;;;;7.22;5.72;;;;;;;18.02;32.73;101085.02;1831831;78;22218;-74
2021/03/26 11:06:00;;;;;;;8.33;5.65;;;;;;;17.94;32.73;101079.03;1831786;78;20916;-75
2021/03/26 11:08:45;;;;;;;6.08;5.03;;;;;;;17.76;33.12;101089.34;1831754;78;21074;-76
2021/03/26 11:11:32;;;;;;;6.20;5.00;;;;;;;17.78;33.21;101091.36;1813824;78;21481;-76
2021/03/26 11:14:56;;;;;;;5.33;4.92;;;;;;;17.67;32.89;101086.09;1831696;78;20939;-74
2021/03/26 11:18:00;;;;;;;5.10;4.55;;;;;;;17.59;32.66;101088.56;1831920;78;22688;-73
2021/03/26 11:20:48;;;;;;;4.80;4.35;;;;;;;17.37;34.05;101081.52;1831786;78;20960;-73
2021/03/26 11:23:32;;;;;;;5.55;5.05;;;;;;;17.55;33.47;101081.82;1831915;78;21628;-73
2021/03/26 11:26:14;;;;;;;4.72;4.25;;;;;;;17.76;32.85;101078.73;1831735;78;20936;-73
2021/03/26 11:28:58;;;;;;;5.37;4.25;;;;;;;17.96;33.25;101081.08;1831860;78;20948;-73
2021/03/26 11:31:34;;;;;;;3.87;3.50;;;;;;;18.10;32.78;101088.37;1831725;78;21189;-75
2021/03/26 11:34:23;;;;;;;5.40;3.92;;;;;;;18.14;31.70;101080.02;1831729;78;20920;-74
2021/03/26 11:37:00;;;;;;;3.55;3.25;;;;;;;17.79;31.07;101076.30;1831736;78;20936;-74
2021/03/26 11:39:56;;;;;;;3.60;3.22;;;;;;;17.52;31.35;101080.27;1828598;78;21040;-74
2021/03/26 11:42:33;;;;;;;2.67;2.50;;;;;;;17.10;32.12;101069.53;1831699;78;20920;-74
2021/03/26 11:45:18;;;;;;;2.98;2.70;;;;;;;16.63;32.87;101070.60;1831783;78;21524;-74
2021/03/26 11:47:48;;;;;;;2.62;2.42;;;;;;;16.20;33.00;101068.64;1831829;78;21031;-76
2021/03/26 11:50:36;;;;;;;2.72;2.40;;;;;;;15.98;33.83;101076.04;1831632;78;21496;-74
2021/03/26 11:53:20;;;;;;;3.20;2.90;;;;;;;15.81;34.73;101070.23;1831636;78;20971;-73
2021/03/26 11:56:06;;;;;;;2.85;2.10;;;;;;;15.95;34.93;101067.37;1831836;78;21433;-76
2021/03/26 11:58:39;;;;;;;2.98;2.67;;;;;;;16.28;34.02;101060.48;1831753;78;21207;-76
2021/03/26 12:01:08;;;;;;;4.37;2.35;;;;;;;16.46;33.88;101056.89;1830120;78;21007;-77
2021/03/26 12:04:11;;;;;;;3.17;2.25;;;;;;;16.67;33.58;101053.52;1804487;78;20951;-76
2021/03/26 12:07:02;;;;;;;2.17;2.00;;;;;;;16.81;33.63;101055.96;1831725;78;21027;-74
2021/03/26 12:09:49;;;;;;;2.45;2.25;;;;;;;16.75;34.01;101050.63;1831673;78;20936;-76
2021/03/26 12:12:23;;;;;;;3.98;3.15;;;;;;;16.71;32.72;101053.64;1831423;77;21379;-77
2021/03/26 12:15:01;;;;;;;1.95;1.75;;;;;;;16.52;33.30;101055.58;1831679;78;20948;-74
2021/03/26 12:17:48;;;;;;;2.42;2.20;;;;;;;16.35;32.79;101051.59;1831836;78;20948;-76
2021/03/26 12:20:37;;;;;;;2.15;1.90;;;;;;;16.19;32.35;101054.58;1831747;78;21465;-75
2021/03/26 12:23:32;;;;;;;2.65;2.47;;;;;;;15.97;32.90;101051.39;1831808;78;20928;-74
2021/03/26 12:26:27;;;;;;;2.50;2.30;;;;;;;15.61;33.31;101053.66;1831807;78;21508;-75
2021/03/26 12:29:27;;;;;;;;;;;;;;;15.32;34.69;101048.72;1834355;78;20915;-76
2021/03/26 12:32:15;;;;;;;2.30;2.20;;;;;;;15.01;36.02;101056.22;1818573;78;20128;-75
2021/03/26 12:35:02;;;;;;;2.70;2.25;;;;;;;14.83;36.58;101049.58;1822406;78;20951;-72
2021/03/26 12:37:47;;;;;;;2.60;2.37;;;;;;;14.70;36.86;101047.83;1760142;80;21512;-73
2021/03/26 12:40:48;;;;;;;2.08;1.57;;;;;;;14.59;36.96;101045.09;1808960;79;21350;-73
2021/03/26 12:43:36;;;;;;;4.37;2.22;;;;;;;14.51;37.16;101053.98;1808973;79;20971;-73
2021/03/26 12:46:43;;;;;;;2.27;2.08;;;;;;;14.29;36.14;101040.11;1845919;76;22740;-71
2021/03/26 12:49:15;;;;;;;2.60;2.25;;;;;;;13.94;36.68;101047.34;1817945;79;20875;-74
2021/03/26 12:51:52;;;;;;;3.08;2.40;;;;;;;13.59;36.06;101046.56;1818062;77;22275;-73
2021/03/26 12:54:31;;;;;;;4.35;1.85;;;;;;;13.31;36.41;101042.72;1818105;77;21472;-74